Portada
METAR-TAF:

METAR-TAF

Aeroports :

Parsons, Tennessee, Estats Units d'Amèrica

latitud: 35-39-23N, longitud: 088-11-43W, altitud: 149 m

Observació

L'informe es va fer fa 31 minuts, a les 22:55 UTC
Vent 5 kt amb direcció variable
Temperatura 24°C
Humitat 69%
Pressió 1014 hPa
Visibilitat: 16.1 km
Escasses núvols a una alçada de 4200 ft
Escasses núvols a una alçada de 4900 ft
Escasses núvols a una alçada de 5500 ft

METAR: KPVE 242255Z AUTO VRB05KT 10SM FEW042 FEW049 FEW055 24/18 A2994 RMK A01

Hora: 18:26 (23:26 UTC)


TAF: manca

Observacions i pronòstics meteorològics de més de 4000 aeroports (METAR i TAF).

Les estacions disponibles són els punts grocs i vermells al mapa.

Posi el ratolí al punt desitjat per veure el nom de l'estació.

Feu clic per veure les observacions i els pronòstics meteorològics.

Per canviar el mapa: feu clic els botons verds amb una creu de color negre per apropar; al botó verd amb un guió per allunyar la imatge; o en les fletxes verdes per a mapes adjacents.


METAR-TAF: